Time;durP1;ratioP1;P1;durP2;ratioP2;P2;SDS_P1;SDS_P2;PMS_P1;PMS_P2;Temp;Humidity;BMP_temperature;BMP_pressure;BME280_temperature;BME280_humidity;BME280_pressure;Samples;Min_cycle;Max_cycle;Signal;HPM_P1;HPM_P2
2022/12/23 00:01:31;;;;;;;22.63;9.52;;;;;;;2.99;100.00;99725.63;7717702;23;20100;-74
2022/12/23 00:04:32;;;;;;;14.90;8.00;;;;;;;3.10;100.00;99708.03;7714380;23;20019;-75
2022/12/23 00:07:33;;;;;;;20.90;9.02;;;;;;;3.15;100.00;99715.59;7716091;23;20337;-75
2022/12/23 00:10:40;;;;;;;13.68;8.50;;;;;;;3.05;100.00;99711.66;7713648;23;20099;-75
2022/12/23 00:17:00;;;;;;;11.50;6.82;;;;;;;3.02;100.00;99699.72;7719411;23;20025;-75
2022/12/23 00:20:01;;;;;;;13.02;7.53;;;;;;;3.10;100.00;99705.44;7718496;23;20012;-75
2022/12/23 00:23:04;;;;;;;21.33;8.07;;;;;;;3.17;100.00;99704.34;7716700;23;20100;-75
2022/12/23 00:26:06;;;;;;;18.48;9.23;;;;;;;3.17;100.00;99708.63;7717173;23;20398;-75
2022/12/23 00:29:09;;;;;;;16.67;9.48;;;;;;;3.04;100.00;99708.25;7715926;23;20039;-75
2022/12/23 00:32:10;;;;;;;15.27;9.27;;;;;;;3.09;100.00;99698.63;7663152;23;20388;-80
2022/12/23 00:35:10;;;;;;;23.15;9.38;;;;;;;3.16;100.00;99710.38;7716568;23;20012;-80
2022/12/23 00:38:14;;;;;;;20.17;8.40;;;;;;;3.18;100.00;99721.47;7716619;23;20017;-80
2022/12/23 00:44:36;;;;;;;18.65;8.27;;;;;;;3.19;100.00;99714.56;7714669;23;20012;-80
2022/12/23 00:50:58;;;;;;;15.85;9.52;;;;;;;3.11;100.00;99707.16;7687596;23;20401;-80
2022/12/23 00:53:59;;;;;;;27.48;8.77;;;;;;;3.15;100.00;99707.84;7714300;23;20016;-74
2022/12/23 00:57:02;;;;;;;26.00;10.85;;;;;;;3.14;100.00;99706.19;7716868;23;20049;-74
2022/12/23 01:00:04;;;;;;;23.27;10.02;;;;;;;3.17;100.00;99703.47;7687510;23;20021;-80
2022/12/23 01:06:35;;;;;;;10.95;7.70;;;;;;;3.34;100.00;99710.63;7659452;23;20024;-80
2022/12/23 01:09:35;;;;;;;21.70;9.65;;;;;;;3.31;100.00;99708.16;7715679;23;20017;-80
2022/12/23 01:12:36;;;;;;;22.27;10.55;;;;;;;3.40;100.00;99710.41;7714441;23;20017;-81
2022/12/23 01:15:37;;;;;;;14.82;9.20;;;;;;;3.38;100.00;99705.28;7689067;23;20023;-81
2022/12/23 01:18:39;;;;;;;18.83;10.40;;;;;;;3.41;100.00;99704.31;7688973;23;20063;-80
2022/12/23 01:21:40;;;;;;;22.20;9.93;;;;;;;3.44;100.00;99696.50;7714445;23;20027;-75
2022/12/23 01:24:41;;;;;;;14.90;8.52;;;;;;;3.43;100.00;99689.63;7714178;23;20017;-75
2022/12/23 01:27:42;;;;;;;20.88;11.43;;;;;;;3.46;100.00;99688.69;7714175;23;20341;-75
2022/12/23 01:30:43;;;;;;;22.25;11.90;;;;;;;3.36;100.00;99698.50;7697232;23;20017;-75
2022/12/23 01:33:44;;;;;;;22.10;9.90;;;;;;;3.34;100.00;99698.56;7713993;23;20378;-76
2022/12/23 01:36:45;;;;;;;17.70;9.35;;;;;;;3.29;100.00;99679.81;7715172;23;20016;-76
2022/12/23 01:39:46;;;;;;;26.90;8.85;;;;;;;3.39;100.00;99680.34;7715513;23;20346;-76
2022/12/23 01:42:47;;;;;;;22.02;10.35;;;;;;;3.36;100.00;99689.03;7714051;23;20017;-81
2022/12/23 01:45:48;;;;;;;26.45;10.63;;;;;;;3.32;100.00;99686.63;7715249;23;20012;-81
2022/12/23 01:48:51;;;;;;;29.20;9.48;;;;;;;3.33;100.00;99698.63;7713596;23;20341;-81
2022/12/23 01:51:52;;;;;;;18.25;10.65;;;;;;;3.37;100.00;99695.03;7688709;23;20465;-81
2022/12/23 01:54:55;;;;;;;24.33;10.77;;;;;;;3.34;100.00;99695.16;7715352;23;20067;-82
2022/12/23 01:58:10;;;;;;;16.85;10.70;;;;;;;3.42;100.00;99701.69;7713917;23;20393;-81
2022/12/23 02:04:31;;;;;;;14.10;8.57;;;;;;;3.36;100.00;99672.72;7720869;23;20155;-81
2022/12/23 02:11:20;;;;;;;17.67;9.50;;;;;;;3.25;100.00;99683.41;7714236;23;20013;-77
2022/12/23 02:18:55;;;;;;;26.73;11.05;;;;;;;3.30;100.00;99673.78;7717415;23;20103;-81
2022/12/23 02:22:25;;;;;;;15.43;8.57;;;;;;;3.26;100.00;99668.81;7715584;23;20024;-80
2022/12/23 02:25:48;;;;;;;22.17;11.45;;;;;;;3.21;100.00;99679.25;7709347;23;20453;-80
2022/12/23 02:28:52;;;;;;;14.63;8.73;;;;;;;3.31;100.00;99675.44;7716124;23;20020;-80
2022/12/23 02:31:53;;;;;;;27.05;12.38;;;;;;;3.31;100.00;99670.28;7715997;23;20099;-81
2022/12/23 02:35:05;;;;;;;21.30;10.63;;;;;;;3.28;100.00;99659.28;7717611;23;20023;-81
2022/12/23 02:38:39;;;;;;;;;;;;;;;3.34;100.00;99671.94;7720106;23;20023;-77
2022/12/23 02:41:56;;;;;;;12.93;6.45;;;;;;;3.28;100.00;99682.47;7666833;23;19994;-76
2022/12/23 02:45:02;;;;;;;25.33;8.60;;;;;;;3.26;100.00;99695.44;7714515;23;20020;-76
2022/12/23 02:48:43;;;;;;;29.33;9.45;;;;;;;3.43;100.00;99687.06;7719337;23;20020;-81
2022/12/23 02:51:49;;;;;;;28.00;10.70;;;;;;;3.42;100.00;99681.06;7692538;23;20442;-81
2022/12/23 02:54:55;;;;;;;20.75;10.77;;;;;;;3.36;100.00;99670.16;7729991;23;20284;-81
2022/12/23 02:57:59;;;;;;;23.90;10.15;;;;;;;3.47;100.00;99680.88;7727984;23;20016;-81
2022/12/23 03:01:02;;;;;;;23.70;11.13;;;;;;;3.39;100.00;99670.84;7718255;23;20024;-81
2022/12/23 03:04:02;;;;;;;23.23;10.93;;;;;;;3.48;100.00;99673.97;7719400;23;20087;-81
2022/12/23 03:07:05;;;;;;;18.15;10.30;;;;;;;3.45;100.00;99668.94;7719242;23;20013;-81
2022/12/23 03:10:15;;;;;;;17.13;10.57;;;;;;;3.51;100.00;99676.47;7717780;23;20016;-81
2022/12/23 03:13:19;;;;;;;22.08;12.30;;;;;;;3.54;100.00;99676.31;7713785;23;20059;-81
2022/12/23 03:16:36;;;;;;;23.00;12.07;;;;;;;3.52;100.00;99676.41;7713866;23;20091;-81
2022/12/23 03:20:05;;;;;;;19.23;9.88;;;;;;;3.50;100.00;99667.88;7715741;23;20023;-77
2022/12/23 03:23:11;;;;;;;24.55;12.70;;;;;;;3.54;100.00;99661.72;7713314;23;20087;-77
2022/12/23 03:26:33;;;;;;;21.45;11.48;;;;;;;3.40;100.00;99656.25;7718308;23;20023;-77
2022/12/23 03:29:44;;;;;;;19.80;11.23;;;;;;;3.31;100.00;99654.00;7717053;23;20021;-77
2022/12/23 03:33:01;;;;;;;18.95;10.73;;;;;;;3.40;100.00;99658.81;7715366;23;20043;-77
2022/12/23 03:36:09;;;;;;;22.65;9.48;;;;;;;3.38;100.00;99663.19;7692558;23;20100;-77
2022/12/23 03:39:15;;;;;;;25.52;11.80;;;;;;;3.40;100.00;99656.25;7718534;23;20025;-77
2022/12/23 03:42:30;;;;;;;25.98;12.13;;;;;;;3.29;100.00;99645.47;7718149;23;20092;-77
2022/12/23 03:45:40;;;;;;;27.02;11.90;;;;;;;3.41;100.00;99652.75;7690320;23;20013;-77
2022/12/23 03:48:50;;;;;;;27.13;11.00;;;;;;;3.50;100.00;99659.28;7690208;23;20040;-77
2022/12/23 03:52:06;;;;;;;20.92;9.38;;;;;;;3.38;100.00;99651.13;7715454;23;20015;-77
2022/12/23 03:55:17;;;;;;;23.15;8.75;;;;;;;3.35;100.00;99643.50;7718575;23;20016;-77
2022/12/23 03:58:20;;;;;;;19.02;9.85;;;;;;;3.37;100.00;99658.91;7715166;23;20449;-77
2022/12/23 04:01:36;;;;;;;17.27;10.30;;;;;;;3.35;100.00;99650.41;7717482;23;20017;-77
2022/12/23 04:04:42;;;;;;;16.95;9.45;;;;;;;3.45;100.00;99658.63;7716416;23;20074;-77
2022/12/23 04:07:53;;;;;;;17.67;11.48;;;;;;;3.46;100.00;99652.56;7689197;23;20107;-77
2022/12/23 04:10:55;;;;;;;18.27;10.45;;;;;;;3.44;100.00;99652.66;7714740;23;20020;-77
2022/12/23 04:13:56;;;;;;;22.58;9.57;;;;;;;3.31;100.00;99638.53;7714796;23;20070;-81
2022/12/23 04:16:58;;;;;;;26.27;10.10;;;;;;;3.34;100.00;99646.16;7714911;23;20020;-81
2022/12/23 04:19:58;;;;;;;28.55;10.50;;;;;;;3.46;100.00;99655.16;7714598;23;20019;-82
2022/12/23 04:22:59;;;;;;;17.05;10.48;;;;;;;3.47;100.00;99649.09;7714436;23;20013;-81
2022/12/23 04:26:00;;;;;;;26.85;10.80;;;;;;;3.58;100.00;99654.66;7692085;23;20028;-81
2022/12/23 04:29:01;;;;;;;24.38;10.80;;;;;;;3.56;100.00;99662.50;7691948;23;20456;-81
2022/12/23 04:32:02;;;;;;;28.23;12.68;;;;;;;3.57;100.00;99656.41;7687907;23;20021;-81
2022/12/23 04:35:03;;;;;;;22.88;12.32;;;;;;;3.62;100.00;99648.50;7691935;23;20345;-81
2022/12/23 04:38:07;;;;;;;29.02;12.27;;;;;;;3.65;100.00;99645.81;7687731;23;20322;-81
2022/12/23 04:41:08;;;;;;;21.95;10.88;;;;;;;3.58;100.00;99632.31;7691494;23;20017;-81
2022/12/23 04:44:08;;;;;;;27.15;12.00;;;;;;;3.56;100.00;99639.28;7691587;23;20035;-81
2022/12/23 04:47:09;;;;;;;27.40;11.50;;;;;;;3.52;100.00;99623.94;7717796;23;20092;-81
2022/12/23 04:50:14;;;;;;;18.85;11.35;;;;;;;3.66;100.00;99641.47;7687980;23;20021;-81
2022/12/23 04:53:17;;;;;;;25.52;10.75;;;;;;;3.56;100.00;99623.78;7717590;23;20092;-77
2022/12/23 04:56:18;;;;;;;26.77;10.60;;;;;;;3.50;100.00;99636.94;7690581;23;20012;-77
2022/12/23 04:59:18;;;;;;;29.40;10.10;;;;;;;3.48;100.00;99638.72;7691095;23;20040;-77
2022/12/23 05:02:19;;;;;;;17.65;9.85;;;;;;;3.55;100.00;99645.31;7690589;23;20016;-77
2022/12/23 05:05:22;;;;;;;22.30;11.63;;;;;;;3.50;100.00;99636.06;7712696;23;20020;-77
2022/12/23 05:08:23;;;;;;;23.33;9.80;;;;;;;3.49;100.00;99640.41;7687362;23;20047;-77
2022/12/23 05:11:26;;;;;;;21.63;11.00;;;;;;;3.59;100.00;99646.06;7688050;23;20135;-77
2022/12/23 05:14:27;;;;;;;17.75;11.10;;;;;;;3.58;100.00;99640.06;7714160;23;20016;-81
2022/12/23 05:17:30;;;;;;;22.38;11.88;;;;;;;3.63;100.00;99645.03;7687940;23;20043;-81
2022/12/23 05:20:33;;;;;;;18.65;10.73;;;;;;;3.59;100.00;99646.88;7716141;23;20040;-81
2022/12/23 05:23:34;;;;;;;20.98;11.85;;;;;;;3.69;100.00;99652.53;7714316;23;20013;-82
2022/12/23 05:26:35;;;;;;;28.27;12.45;;;;;;;3.61;100.00;99644.25;7687698;23;20100;-81
2022/12/23 05:29:36;;;;;;;26.38;10.93;;;;;;;3.67;100.00;99662.06;7714130;23;20044;-78
2022/12/23 05:32:38;;;;;;;22.77;12.73;;;;;;;3.70;100.00;99663.69;7687838;23;20017;-78
2022/12/23 05:35:39;;;;;;;31.85;11.95;;;;;;;3.62;100.00;99657.09;7687657;23;20016;-78
2022/12/23 05:38:39;;;;;;;23.17;10.70;;;;;;;3.63;100.00;99650.19;7687828;23;20475;-78
2022/12/23 05:41:40;;;;;;;21.98;11.35;;;;;;;3.73;100.00;99650.69;7714261;23;20027;-78
2022/12/23 05:44:41;;;;;;;23.80;11.52;;;;;;;3.57;100.00;99646.09;7687633;23;20098;-78
2022/12/23 05:47:41;;;;;;;21.15;11.43;;;;;;;3.61;100.00;99646.84;7715132;23;20017;-78
2022/12/23 05:50:43;;;;;;;23.27;11.15;;;;;;;3.56;100.00;99639.28;7689416;23;20024;-78
2022/12/23 05:53:46;;;;;;;26.30;11.45;;;;;;;3.56;100.00;99644.44;7717224;23;20437;-82
2022/12/23 05:56:47;;;;;;;23.25;10.88;;;;;;;3.56;100.00;99649.59;7716303;23;20066;-82
2022/12/23 05:59:50;;;;;;;14.80;8.68;;;;;;;3.56;100.00;99636.69;7690114;23;20016;-81
2022/12/23 06:02:51;;;;;;;23.90;11.32;;;;;;;3.52;100.00;99635.13;7689582;23;20028;-82
2022/12/23 06:05:53;;;;;;;18.17;10.00;;;;;;;3.59;100.00;99638.31;7689308;23;20017;-78
2022/12/23 06:08:54;;;;;;;26.88;11.23;;;;;;;3.53;100.00;99636.81;7691300;23;20091;-78
2022/12/23 06:11:54;;;;;;;25.85;12.07;;;;;;;3.42;100.00;99638.97;7690781;23;20074;-81
2022/12/23 06:14:55;;;;;;;20.55;9.15;;;;;;;3.45;100.00;99646.56;7691269;23;20017;-82
2022/12/23 06:17:56;;;;;;;21.08;11.02;;;;;;;3.57;100.00;99655.59;7690799;23;20484;-82
2022/12/23 06:20:58;;;;;;;27.90;11.98;;;;;;;3.63;100.00;99650.19;7691651;23;20381;-82
2022/12/23 06:23:59;;;;;;;29.92;9.30;;;;;;;3.73;100.00;99659.25;7717778;23;20131;-82
2022/12/23 06:27:02;;;;;;;23.90;10.40;;;;;;;3.62;100.00;99651.06;7716194;23;20017;-82
2022/12/23 06:30:05;;;;;;;22.85;10.40;;;;;;;3.68;100.00;99647.41;7717303;23;20021;-82
2022/12/23 06:33:08;;;;;;;33.97;12.63;;;;;;;3.77;100.00;99652.25;7730019;23;20469;-81
2022/12/23 06:36:09;;;;;;;25.38;11.27;;;;;;;3.74;100.00;99642.03;7717624;23;20012;-81
2022/12/23 06:39:13;;;;;;;29.30;11.23;;;;;;;3.79;100.00;99658.19;7698753;23;20027;-78
2022/12/23 06:42:13;;;;;;;31.55;12.75;;;;;;;3.84;100.00;99662.25;7689253;23;20017;-79
2022/12/23 06:45:14;;;;;;;20.08;10.38;;;;;;;3.78;100.00;99662.47;7715888;23;20013;-81
2022/12/23 06:48:16;;;;;;;43.47;13.73;;;;;;;3.93;100.00;99662.78;7692726;23;20023;-78
2022/12/23 06:51:17;;;;;;;50.80;14.38;;;;;;;3.90;100.00;99665.50;7692687;23;20039;-79
2022/12/23 06:54:18;;;;;;;28.70;13.80;;;;;;;3.89;100.00;99661.22;7719122;23;20145;-83
2022/12/23 06:57:19;;;;;;;27.80;12.23;;;;;;;3.87;100.00;99650.13;7689144;23;20599;-83
2022/12/23 07:00:22;;;;;;;34.83;15.68;;;;;;;3.79;100.00;99660.75;7689310;23;20514;-83
2022/12/23 07:03:23;;;;;;;41.17;13.32;;;;;;;3.83;100.00;99660.56;7688861;23;20039;-83
2022/12/23 07:06:23;;;;;;;33.83;13.98;;;;;;;3.92;100.00;99666.28;7691852;23;20449;-83
2022/12/23 07:09:27;;;;;;;38.97;12.80;;;;;;;3.94;100.00;99675.63;7718671;23;20012;-83
2022/12/23 07:12:27;;;;;;;27.33;12.48;;;;;;;4.03;100.00;99675.25;7691776;23;20092;-83
2022/12/23 07:15:28;;;;;;;16.45;9.15;;;;;;;3.99;100.00;99685.75;7663338;23;20023;-83
2022/12/23 07:18:29;;;;;;;33.58;11.43;;;;;;;4.03;100.00;99684.75;7717928;23;20024;-85
2022/12/23 07:21:30;;;;;;;27.17;11.63;;;;;;;4.01;100.00;99686.53;7718064;23;20021;-85
2022/12/23 07:24:30;;;;;;;19.85;10.88;;;;;;;4.17;100.00;99697.94;7691106;23;20024;-84
2022/12/23 07:27:31;;;;;;;47.65;17.60;;;;;;;4.12;100.00;99694.72;7691816;23;20078;-82
2022/12/23 07:30:34;;;;;;;73.70;18.05;;;;;;;4.13;100.00;99690.38;7717444;23;20445;-81
2022/12/23 07:33:37;;;;;;;37.35;15.13;;;;;;;4.11;100.00;99679.28;7724141;23;19997;-82
2022/12/23 07:36:38;;;;;;;27.15;14.00;;;;;;;4.20;100.00;99703.00;7693766;23;20083;-82
2022/12/23 07:39:39;;;;;;;25.40;12.45;;;;;;;4.21;100.00;99703.81;7689333;23;20023;-82
2022/12/23 07:42:40;;;;;;;26.13;12.00;;;;;;;4.23;100.00;99694.28;7689931;23;20428;-82
2022/12/23 07:45:43;;;;;;;37.97;17.40;;;;;;;4.31;100.00;99699.13;7714723;23;20056;-82
2022/12/23 07:48:43;;;;;;;29.60;12.65;;;;;;;4.29;100.00;99709.53;7689100;23;20051;-84
2022/12/23 07:51:44;;;;;;;30.90;11.98;;;;;;;4.27;100.00;99708.75;7690214;23;20012;-84
2022/12/23 07:54:45;;;;;;;40.83;15.73;;;;;;;4.28;100.00;99705.25;7689915;23;20087;-84
2022/12/23 07:57:51;;;;;;;27.95;12.55;;;;;;;4.26;100.00;99698.47;7689361;23;20021;-84
2022/12/23 08:01:01;;;;;;;34.30;11.98;;;;;;;4.17;100.00;99697.09;7690066;23;20016;-82
2022/12/23 08:04:02;;;;;;;27.33;12.13;;;;;;;4.19;100.00;99690.13;7718734;23;20021;-81
2022/12/23 08:07:03;;;;;;;31.95;15.20;;;;;;;4.21;100.00;99696.91;7715589;23;20071;-84
2022/12/23 08:10:05;;;;;;;26.83;13.20;;;;;;;4.24;100.00;99709.72;7689300;23;20043;-84
2022/12/23 08:13:06;;;;;;;21.38;12.07;;;;;;;4.12;100.00;99691.28;7689629;23;20013;-84
2022/12/23 08:16:07;;;;;;;17.88;9.88;;;;;;;4.30;100.00;99713.78;7689160;23;20017;-84
2022/12/23 08:19:08;;;;;;;31.95;11.65;;;;;;;4.31;100.00;99714.63;7693259;23;20023;-84
2022/12/23 08:22:09;;;;;;;32.15;12.02;;;;;;;4.34;100.00;99727.41;7704546;23;20017;-81
2022/12/23 08:25:10;;;;;;;27.95;13.68;;;;;;;4.41;100.00;99718.53;7688047;23;20032;-82
2022/12/23 08:28:11;;;;;;;38.63;13.77;;;;;;;4.39;100.00;99726.34;7688049;23;20016;-83
2022/12/23 08:31:14;;;;;;;18.83;10.13;;;;;;;4.39;100.00;99730.66;7718250;23;20016;-83
2022/12/23 08:34:16;;;;;;;25.55;11.02;;;;;;;4.41;100.00;99727.09;7690340;23;20039;-83
2022/12/23 08:37:19;;;;;;;25.38;11.27;;;;;;;4.31;100.00;99720.63;7691062;23;20099;-83
2022/12/23 08:40:21;;;;;;;29.58;11.93;;;;;;;4.37;100.00;99717.81;7714353;23;20017;-83
2022/12/23 08:43:22;;;;;;;22.98;10.57;;;;;;;4.35;100.00;99721.34;7714153;23;20023;-83
2022/12/23 08:46:26;;;;;;;17.27;8.13;;;;;;;4.39;100.00;99720.34;7690989;23;20020;-83
2022/12/23 08:49:27;;;;;;;35.60;11.85;;;;;;;4.54;100.00;99711.94;7716768;23;20043;-82
2022/12/23 08:52:27;;;;;;;40.55;10.80;;;;;;;4.52;100.00;99703.41;7715728;23;20013;-82
2022/12/23 08:55:28;;;;;;;25.48;11.20;;;;;;;4.64;100.00;99710.66;7663710;23;20017;-83
2022/12/23 08:58:30;;;;;;;18.50;10.20;;;;;;;4.63;100.00;99700.38;7715346;23;20536;-83
2022/12/23 09:01:33;;;;;;;20.10;10.23;;;;;;;4.69;100.00;99697.53;7690650;23;20100;-83
2022/12/23 09:04:35;;;;;;;25.42;12.07;;;;;;;4.77;100.00;99700.63;7688166;23;20023;-83
2022/12/23 09:07:39;;;;;;;39.92;10.80;;;;;;;4.82;100.00;99692.69;7690630;23;20017;-83
2022/12/23 09:10:45;;;;;;;20.58;10.18;;;;;;;4.83;100.00;99691.78;7690087;23;20151;-82
2022/12/23 09:13:47;;;;;;;20.90;11.45;;;;;;;4.76;100.00;99685.19;7714151;23;20460;-84
2022/12/23 09:16:53;;;;;;;23.17;12.00;;;;;;;4.91;100.00;99686.28;7687824;23;20017;-84
2022/12/23 09:19:54;;;;;;;22.02;11.30;;;;;;;4.97;100.00;99683.44;7687573;23;20024;-84
2022/12/23 09:22:54;;;;;;;35.80;13.80;;;;;;;4.97;100.00;99683.44;7714056;23;20044;-83
2022/12/23 09:25:56;;;;;;;25.58;12.40;;;;;;;5.02;100.00;99687.50;7687485;23;20075;-84
2022/12/23 09:28:57;;;;;;;26.55;12.43;;;;;;;5.04;100.00;99684.81;7687448;23;20017;-84
2022/12/23 09:31:58;;;;;;;26.67;10.48;;;;;;;5.06;100.00;99680.41;7683682;23;20020;-82
2022/12/23 09:34:59;;;;;;;22.25;10.77;;;;;;;5.05;100.00;99663.25;7712541;23;20017;-83
2022/12/23 09:38:00;;;;;;;17.95;10.05;;;;;;;4.88;100.00;99650.19;7712650;23;20468;-82
2022/12/23 09:41:19;;;;;;;25.02;10.35;;;;;;;5.14;100.00;99673.16;7687203;23;20762;-82
2022/12/23 09:44:35;;;;;;;22.73;10.95;;;;;;;5.13;100.00;99666.31;7716032;23;20445;-82
2022/12/23 09:47:37;;;;;;;26.95;11.52;;;;;;;5.16;100.00;99668.75;7712199;23;20485;-82
2022/12/23 09:50:41;;;;;;;13.55;9.00;;;;;;;5.32;100.00;99673.25;7713753;23;20016;-82
2022/12/23 09:54:02;;;;;;;22.05;10.90;;;;;;;5.39;100.00;99685.81;7712573;23;20039;-84
2022/12/23 09:57:14;;;;;;;26.67;10.93;;;;;;;5.34;100.00;99680.03;7712119;23;20021;-84
2022/12/23 10:00:18;;;;;;;24.60;9.95;;;;;;;5.42;100.00;99677.09;7717416;23;20013;-82
2022/12/23 10:03:23;;;;;;;;;;;;;;;5.46;100.00;99668.28;7712809;23;20020;-82
2022/12/23 10:06:29;;;;;;;16.42;8.80;;;;;;;5.50;100.00;99666.38;7718409;23;19915;-82
2022/12/23 10:09:36;;;;;;;21.98;9.68;;;;;;;5.51;100.00;99661.16;7716486;23;20319;-82
2022/12/23 10:12:43;;;;;;;26.17;12.50;;;;;;;5.50;100.00;99656.03;7713654;23;20020;-82
2022/12/23 10:15:48;;;;;;;28.83;11.73;;;;;;;5.52;100.00;99656.78;7712265;23;20040;-82
2022/12/23 10:18:51;;;;;;;24.85;10.77;;;;;;;5.59;100.00;99648.69;7713602;23;20028;-82
2022/12/23 10:22:12;;;;;;;27.42;10.90;;;;;;;5.69;100.00;99643.91;7712244;23;20437;-82
2022/12/23 10:25:21;;;;;;;19.05;9.93;;;;;;;5.72;100.00;99642.94;7716344;23;20111;-82
2022/12/23 10:28:22;;;;;;;28.13;11.27;;;;;;;5.72;100.00;99640.34;7711825;23;20453;-82
2022/12/23 10:31:46;;;;;;;26.00;12.25;;;;;;;5.77;100.00;99638.38;7686742;23;20031;-83
2022/12/23 10:34:50;;;;;;;21.80;9.48;;;;;;;5.81;100.00;99669.22;7715302;23;20013;-82
2022/12/23 10:37:58;;;;;;;26.00;11.48;;;;;;;5.76;100.00;99655.66;7713736;23;20408;-82
2022/12/23 10:41:04;;;;;;;28.67;11.38;;;;;;;5.73;100.00;99660.97;7714111;23;20020;-82
2022/12/23 10:44:33;;;;;;;29.65;12.35;;;;;;;5.84;100.00;99638.00;7714154;23;20408;-82
2022/12/23 10:47:52;;;;;;;27.45;12.55;;;;;;;5.87;100.00;99631.84;7715707;23;20017;-82
2022/12/23 10:51:04;;;;;;;25.77;10.75;;;;;;;5.88;100.00;99622.34;7716950;23;20039;-84
2022/12/23 10:54:13;;;;;;;;;;;;;;;5.92;100.00;99613.50;7716576;23;20039;-82
2022/12/23 10:57:16;;;;;;;42.40;10.25;;;;;;;5.78;100.00;99606.41;7714320;23;19916;-84
2022/12/23 11:00:24;;;;;;;26.63;12.30;;;;;;;5.90;100.00;99600.63;7719157;23;20017;-84
2022/12/23 11:03:33;;;;;;;25.65;11.68;;;;;;;5.94;100.00;99588.38;7689199;23;20123;-85
2022/12/23 11:06:42;;;;;;;21.63;12.75;;;;;;;5.97;100.00;99583.91;7714007;23;20098;-82
2022/12/23 11:09:48;;;;;;;33.88;13.18;;;;;;;5.90;100.00;99572.13;7715747;23;20358;-82
2022/12/23 11:12:51;;;;;;;35.60;14.15;;;;;;;6.01;100.00;99556.09;7716980;23;20013;-82
2022/12/23 11:15:54;;;;;;;32.60;14.88;;;;;;;6.02;100.00;99548.25;7714699;23;20087;-82
2022/12/23 11:19:00;;;;;;;56.80;17.50;;;;;;;6.15;100.00;99558.81;7713939;23;20020;-82
2022/12/23 11:22:01;;;;;;;38.13;12.65;;;;;;;5.98;100.00;99533.78;7688429;23;20530;-84
2022/12/23 11:25:26;;;;;;;47.15;18.92;;;;;;;6.18;100.00;99545.72;7689701;23;20070;-84
2022/12/23 11:28:28;;;;;;;32.97;14.32;;;;;;;6.25;100.00;99539.31;7713652;23;20020;-84
2022/12/23 11:31:34;;;;;;;33.42;15.65;;;;;;;6.20;100.00;99536.13;7718993;23;20041;-84
2022/12/23 11:34:37;;;;;;;32.22;11.93;;;;;;;6.21;100.00;99526.59;7691984;23;20019;-84
2022/12/23 11:37:41;;;;;;;45.65;13.65;;;;;;;6.25;100.00;99515.16;7664241;23;20024;-81
2022/12/23 11:40:45;;;;;;;34.22;13.43;;;;;;;6.30;100.00;99523.53;7714149;23;20349;-84
2022/12/23 11:44:04;;;;;;;28.65;11.15;;;;;;;6.23;100.00;99517.81;7690921;23;20013;-84
2022/12/23 11:47:34;;;;;;;36.58;14.38;;;;;;;6.33;100.00;99519.94;7696111;23;20310;-84
2022/12/23 11:50:39;;;;;;;36.40;14.10;;;;;;;6.21;100.00;99493.75;7689103;23;20013;-82
2022/12/23 11:53:42;;;;;;;28.27;10.63;;;;;;;6.21;100.00;99490.31;7714933;23;20012;-82
2022/12/23 11:56:43;;;;;;;28.95;10.60;;;;;;;6.15;100.00;99483.69;7688935;23;21057;-81
2022/12/23 11:59:50;;;;;;;29.98;12.45;;;;;;;6.26;100.00;99496.13;7723950;23;20024;-81
2022/12/23 12:02:57;;;;;;;29.88;12.23;;;;;;;6.38;100.00;99495.47;7689542;23;20012;-82
2022/12/23 12:06:03;;;;;;;30.17;14.07;;;;;;;6.40;100.00;99488.47;7689108;23;20042;-82
2022/12/23 12:09:05;;;;;;;22.52;10.15;;;;;;;6.39;100.00;99484.19;7712310;23;20424;-81
2022/12/23 12:12:20;;;;;;;18.10;9.93;;;;;;;6.45;100.00;99476.09;7685732;23;20457;-81
2022/12/23 12:15:56;;;;;;;26.60;11.35;;;;;;;6.52;100.00;99470.56;7713945;23;20017;-81
2022/12/23 12:19:04;;;;;;;16.33;8.57;;;;;;;6.40;100.00;99470.31;7661857;23;20032;-80
2022/12/23 12:22:14;;;;;;;26.92;11.57;;;;;;;6.47;100.00;99495.91;7686559;23;20036;-83
2022/12/23 12:25:15;;;;;;;27.08;12.85;;;;;;;6.52;100.00;99501.69;7692097;23;20441;-84
2022/12/23 12:28:23;;;;;;;31.10;9.77;;;;;;;6.60;100.00;99509.88;7691424;23;20017;-84
2022/12/23 12:31:39;;;;;;;23.20;11.05;;;;;;;6.67;100.00;99521.59;7702766;23;20314;-84
2022/12/23 12:34:42;;;;;;;21.60;11.05;;;;;;;6.58;100.00;99517.72;7716734;23;20016;-83
2022/12/23 12:38:11;;;;;;;34.75;13.57;;;;;;;6.66;100.00;99517.34;7714473;23;20349;-84
2022/12/23 12:41:13;;;;;;;27.45;13.02;;;;;;;6.65;100.00;99521.69;7687598;23;20112;-83
2022/12/23 12:44:25;;;;;;;24.90;11.88;;;;;;;6.53;100.00;99540.47;7714429;23;20441;-82
2022/12/23 12:47:37;;;;;;;;;;;;;;;6.61;100.00;99524.50;7716501;23;20433;-84
2022/12/23 12:50:43;;;;;;;27.52;10.43;;;;;;;6.49;100.00;99520.00;7715281;23;19916;-83
2022/12/23 12:54:08;;;;;;;21.45;9.85;;;;;;;6.60;100.00;99533.22;7717444;23;20067;-82
2022/12/23 12:57:17;;;;;;;37.33;12.98;;;;;;;6.68;100.00;99531.06;7722482;23;20507;-82
2022/12/23 13:00:23;;;;;;;18.75;9.80;;;;;;;6.68;100.00;99518.09;7725952;23;20039;-81
2022/12/23 13:04:10;;;;;;;21.90;11.48;;;;;;;6.72;100.00;99518.78;7720844;23;20095;-81
2022/12/23 13:07:13;;;;;;;17.70;9.10;;;;;;;6.74;100.00;99524.72;7714609;23;20023;-81
2022/12/23 13:10:32;;;;;;;28.60;11.13;;;;;;;6.77;100.00;99522.75;7716046;23;20020;-81
2022/12/23 13:13:42;;;;;;;27.98;11.13;;;;;;;6.77;100.00;99547.88;7715246;23;20019;-81
2022/12/23 13:16:49;;;;;;;29.95;12.50;;;;;;;6.82;100.00;99545.88;7712790;23;20051;-81
2022/12/23 13:20:11;;;;;;;16.83;8.65;;;;;;;6.82;100.00;99518.19;7720904;23;20016;-81
2022/12/23 13:23:21;;;;;;;22.92;11.82;;;;;;;6.89;100.00;99526.47;7688054;23;20082;-83
2022/12/23 13:26:50;;;;;;;24.67;10.48;;;;;;;7.01;100.00;99536.16;7687808;23;20457;-84
2022/12/23 13:30:02;;;;;;;20.23;8.85;;;;;;;7.02;100.00;99542.19;7718002;23;20027;-84
2022/12/23 13:33:05;;;;;;;26.30;11.80;;;;;;;6.95;100.00;99540.88;7664208;23;20105;-84
2022/12/23 13:36:35;;;;;;;31.40;15.70;;;;;;;6.97;100.00;99552.00;7662765;23;20071;-81
2022/12/23 13:40:13;;;;;;;17.90;10.68;;;;;;;6.93;100.00;99551.31;7631377;23;20017;-84
2022/12/23 13:43:18;;;;;;;27.35;12.77;;;;;;;7.01;100.00;99549.13;7714290;23;20021;-84
2022/12/23 13:46:30;;;;;;;21.05;11.90;;;;;;;6.96;100.00;99539.94;7714917;23;20404;-84
2022/12/23 13:49:55;;;;;;;25.25;12.45;;;;;;;7.00;100.00;99534.50;7715852;23;20017;-84
2022/12/23 13:52:59;;;;;;;23.13;10.48;;;;;;;7.12;100.00;99514.81;7712379;23;20016;-84
2022/12/23 13:56:33;;;;;;;25.63;11.90;;;;;;;7.15;100.00;99525.03;7686063;23;20441;-84
2022/12/23 13:59:43;;;;;;;30.48;13.52;;;;;;;7.07;100.00;99509.06;7666747;23;20024;-84
2022/12/23 14:02:56;;;;;;;31.90;13.77;;;;;;;7.01;100.00;99522.38;7687815;23;20040;-84
2022/12/23 14:05:57;;;;;;;24.80;13.73;;;;;;;6.97;100.00;99513.09;7715051;23;20341;-84
2022/12/23 14:08:58;;;;;;;30.00;12.32;;;;;;;6.93;100.00;99494.25;7713986;23;20012;-83
2022/12/23 14:12:24;;;;;;;29.77;14.07;;;;;;;6.96;100.00;99501.88;7663852;23;20020;-84
2022/12/23 14:15:33;;;;;;;30.88;13.13;;;;;;;6.96;100.00;99499.28;7718702;23;20017;-84
2022/12/23 14:18:46;;;;;;;26.73;12.75;;;;;;;6.93;100.00;99506.38;7664479;23;20012;-84
2022/12/23 14:22:24;;;;;;;26.73;13.35;;;;;;;6.88;100.00;99505.78;7664581;23;20087;-81
2022/12/23 14:25:56;;;;;;;24.77;11.65;;;;;;;6.95;100.00;99510.56;7693545;23;20016;-81
2022/12/23 14:29:32;;;;;;;32.30;13.55;;;;;;;7.04;100.00;99511.81;7716914;23;20020;-80
2022/12/23 14:32:49;;;;;;;32.22;11.68;;;;;;;6.95;100.00;99526.13;7719072;23;20642;-81
2022/12/23 14:35:51;;;;;;;29.10;12.45;;;;;;;6.97;100.00;99520.88;7691104;23;20012;-82
2022/12/23 14:39:21;;;;;;;;;;;;;;;6.99;100.00;99525.03;7715392;23;20035;-81
2022/12/23 14:42:40;;;;;;;21.17;8.45;;;;;;;6.92;100.00;99544.47;7662955;23;20597;-82
2022/12/23 14:45:42;;;;;;;23.33;11.10;;;;;;;6.96;100.00;99551.16;7688455;23;20103;-82